Startpagina
METAR-TAF:

METAR-TAF

Vliegvelden :

Hoedspruit, Zuid-Afrika

breedte: 24-21-17S, lengte: 31-03-01E, hoogte: 531 m

Actueel weer

Dit bericht is 36 minuten geleden gemaakt, om 19:00 UTC
Wind 1 kt uit het zuidzuidoosten
Temperatuur 24°C
Vochtigheid 89%
Druk 1019 hPa

METAR: FAHS 241900Z AUTO 15001KT //// // ////// 24/22 Q1019

Tijdstip: 21:36 (19:36 UTC)

Verwachting

Dit bericht is 10 uur en het 36 minuten geleden gemaakt, om 09:00 UTC
Verwachting geldig van 24 om 10 UTC tot 24 om 18 UTC
Wind 8 kt uit het zuidzuidoosten
Zicht 10 km of meer
Gebroken wolken op 3000 ft
Wijzigt naar
van 24 om 14 UTC tot 24 om 16 UTC
Verspreide wolken op 3500 ft

TAF: FAHS 240900Z 2410/2418 16008KT 9999 BKN030 TX26/2412Z TN22/2418Z BECMG 2414/2416 SCT035

Waarnemingen en weersverwachtingen van meer dan 4000 vliegvelden (METAR en TAF).

De beschikbare stations zijn de gele en rode punten op de kaart.

Ga met uw muis naar het station om de naam te zien.

Klik dan om waarnemingen en weersverwachtingen te zien.

kaart wijzigen: klik op de groene knoppen met een zwart kruis om in te zoomen, op de groene knop met een streepje om uit te zoomen of op de groene pijlen voor aangrenzende kaarten.


METAR-TAF: